sensor_id;sensor_type;location;lat;lon;timestamp;P1;durP1;ratioP1;P2;durP2;ratioP2
54599;SDS011;40500;51.084;16.958;2023-01-15T00:02:12;2.80;;;1.70;;
54599;SDS011;40500;51.084;16.958;2023-01-15T00:05:01;4.60;;;1.60;;
54599;SDS011;40500;51.084;16.958;2023-01-15T00:07:56;3.50;;;1.40;;
54599;SDS011;40500;51.084;16.958;2023-01-15T00:10:47;2.60;;;1.00;;
54599;SDS011;40500;51.084;16.958;2023-01-15T00:13:35;2.80;;;1.20;;
54599;SDS011;40500;51.084;16.958;2023-01-15T00:16:09;2.90;;;1.40;;
54599;SDS011;40500;51.084;16.958;2023-01-15T00:18:56;2.20;;;1.20;;
54599;SDS011;40500;51.084;16.958;2023-01-15T00:21:58;3.20;;;1.10;;
54599;SDS011;40500;51.084;16.958;2023-01-15T00:24:56;2.10;;;1.10;;
54599;SDS011;40500;51.084;16.958;2023-01-15T00:29:33;1.20;;;0.90;;
54599;SDS011;40500;51.084;16.958;2023-01-15T00:32:31;2.60;;;1.00;;
54599;SDS011;40500;51.084;16.958;2023-01-15T00:35:09;5.30;;;1.30;;
54599;SDS011;40500;51.084;16.958;2023-01-15T00:38:10;1.90;;;1.00;;
54599;SDS011;40500;51.084;16.958;2023-01-15T00:41:15;4.70;;;1.20;;
54599;SDS011;40500;51.084;16.958;2023-01-15T00:44:12;2.30;;;1.30;;
54599;SDS011;40500;51.084;16.958;2023-01-15T00:47:05;2.70;;;1.20;;
54599;SDS011;40500;51.084;16.958;2023-01-15T00:50:07;2.40;;;1.40;;
54599;SDS011;40500;51.084;16.958;2023-01-15T00:53:24;2.00;;;1.30;;
54599;SDS011;40500;51.084;16.958;2023-01-15T00:56:12;3.90;;;1.60;;
54599;SDS011;40500;51.084;16.958;2023-01-15T00:58:59;3.30;;;1.40;;
54599;SDS011;40500;51.084;16.958;2023-01-15T01:02:02;2.60;;;1.60;;
54599;SDS011;40500;51.084;16.958;2023-01-15T01:10:18;2.30;;;1.60;;
54599;SDS011;40500;51.084;16.958;2023-01-15T01:12:56;5.50;;;1.80;;
54599;SDS011;40500;51.084;16.958;2023-01-15T01:15:45;2.10;;;1.50;;
54599;SDS011;40500;51.084;16.958;2023-01-15T01:18:28;2.00;;;1.30;;
54599;SDS011;40500;51.084;16.958;2023-01-15T01:21:37;2.30;;;1.50;;
54599;SDS011;40500;51.084;16.958;2023-01-15T01:25:16;3.00;;;1.40;;
54599;SDS011;40500;51.084;16.958;2023-01-15T01:27:55;1.70;;;1.60;;
54599;SDS011;40500;51.084;16.958;2023-01-15T01:30:43;2.20;;;1.70;;
54599;SDS011;40500;51.084;16.958;2023-01-15T01:33:17;1.80;;;1.40;;
54599;SDS011;40500;51.084;16.958;2023-01-15T01:36:24;2.70;;;1.60;;
54599;SDS011;40500;51.084;16.958;2023-01-15T01:39:25;3.40;;;1.80;;
54599;SDS011;40500;51.084;16.958;2023-01-15T01:42:04;3.50;;;1.60;;
54599;SDS011;40500;51.084;16.958;2023-01-15T01:45:10;2.70;;;1.60;;
54599;SDS011;40500;51.084;16.958;2023-01-15T01:49:20;3.00;;;1.80;;
54599;SDS011;40500;51.084;16.958;2023-01-15T01:52:22;3.30;;;1.50;;
54599;SDS011;40500;51.084;16.958;2023-01-15T01:55:21;2.50;;;1.40;;
54599;SDS011;40500;51.084;16.958;2023-01-15T01:58:03;3.20;;;1.90;;
54599;SDS011;40500;51.084;16.958;2023-01-15T02:00:44;3.60;;;1.90;;
54599;SDS011;40500;51.084;16.958;2023-01-15T02:06:35;3.10;;;1.40;;
54599;SDS011;40500;51.084;16.958;2023-01-15T02:09:28;2.40;;;1.70;;
54599;SDS011;40500;51.084;16.958;2023-01-15T02:12:05;2.00;;;1.80;;
54599;SDS011;40500;51.084;16.958;2023-01-15T02:15:03;2.20;;;1.60;;
54599;SDS011;40500;51.084;16.958;2023-01-15T02:18:06;2.30;;;1.70;;
54599;SDS011;40500;51.084;16.958;2023-01-15T02:21:13;3.00;;;1.30;;
54599;SDS011;40500;51.084;16.958;2023-01-15T02:24:21;2.10;;;1.50;;
54599;SDS011;40500;51.084;16.958;2023-01-15T02:27:30;2.50;;;1.40;;
54599;SDS011;40500;51.084;16.958;2023-01-15T02:30:20;1.80;;;1.40;;
54599;SDS011;40500;51.084;16.958;2023-01-15T02:33:11;4.00;;;1.50;;
54599;SDS011;40500;51.084;16.958;2023-01-15T02:36:07;2.80;;;1.30;;
54599;SDS011;40500;51.084;16.958;2023-01-15T02:39:12;1.90;;;1.30;;
54599;SDS011;40500;51.084;16.958;2023-01-15T02:42:01;2.60;;;1.60;;
54599;SDS011;40500;51.084;16.958;2023-01-15T02:44:48;1.80;;;1.40;;
54599;SDS011;40500;51.084;16.958;2023-01-15T02:47:30;1.60;;;1.50;;
54599;SDS011;40500;51.084;16.958;2023-01-15T02:50:13;2.70;;;1.30;;
54599;SDS011;40500;51.084;16.958;2023-01-15T02:53:04;2.20;;;1.30;;
54599;SDS011;40500;51.084;16.958;2023-01-15T02:56:10;1.60;;;1.30;;
54599;SDS011;40500;51.084;16.958;2023-01-15T02:59:08;2.20;;;1.30;;
54599;SDS011;40500;51.084;16.958;2023-01-15T03:01:58;2.30;;;1.30;;
54599;SDS011;40500;51.084;16.958;2023-01-15T03:04:38;1.60;;;1.40;;
54599;SDS011;40500;51.084;16.958;2023-01-15T03:07:18;1.30;;;1.10;;
54599;SDS011;40500;51.084;16.958;2023-01-15T03:10:29;1.20;;;1.10;;
54599;SDS011;40500;51.084;16.958;2023-01-15T03:13:14;1.90;;;1.10;;
54599;SDS011;40500;51.084;16.958;2023-01-15T03:16:28;1.50;;;1.00;;
54599;SDS011;40500;51.084;16.958;2023-01-15T03:19:30;1.00;;;0.80;;
54599;SDS011;40500;51.084;16.958;2023-01-15T03:22:24;1.10;;;1.00;;
54599;SDS011;40500;51.084;16.958;2023-01-15T03:25:15;1.20;;;1.00;;
54599;SDS011;40500;51.084;16.958;2023-01-15T03:27:58;1.40;;;1.00;;
54599;SDS011;40500;51.084;16.958;2023-01-15T03:30:41;1.10;;;0.90;;
54599;SDS011;40500;51.084;16.958;2023-01-15T03:33:22;1.20;;;0.90;;
54599;SDS011;40500;51.084;16.958;2023-01-15T03:36:12;2.00;;;0.90;;
54599;SDS011;40500;51.084;16.958;2023-01-15T03:39:07;1.30;;;0.90;;
54599;SDS011;40500;51.084;16.958;2023-01-15T03:42:37;0.90;;;0.80;;
54599;SDS011;40500;51.084;16.958;2023-01-15T03:45:45;1.00;;;0.90;;
54599;SDS011;40500;51.084;16.958;2023-01-15T03:48:48;1.00;;;0.90;;
54599;SDS011;40500;51.084;16.958;2023-01-15T03:51:47;0.70;;;0.70;;
54599;SDS011;40500;51.084;16.958;2023-01-15T03:57:46;1.50;;;1.10;;
54599;SDS011;40500;51.084;16.958;2023-01-15T04:00:39;0.90;;;0.90;;
54599;SDS011;40500;51.084;16.958;2023-01-15T04:03:37;0.60;;;0.60;;
54599;SDS011;40500;51.084;16.958;2023-01-15T04:06:33;0.70;;;0.70;;
54599;SDS011;40500;51.084;16.958;2023-01-15T04:09:27;2.10;;;0.80;;
54599;SDS011;40500;51.084;16.958;2023-01-15T04:12:10;0.60;;;0.60;;
54599;SDS011;40500;51.084;16.958;2023-01-15T04:15:14;1.70;;;0.80;;
54599;SDS011;40500;51.084;16.958;2023-01-15T04:17:56;0.80;;;0.60;;
54599;SDS011;40500;51.084;16.958;2023-01-15T04:21:08;1.10;;;0.90;;
54599;SDS011;40500;51.084;16.958;2023-01-15T04:23:54;2.20;;;0.90;;
54599;SDS011;40500;51.084;16.958;2023-01-15T04:26:47;1.00;;;0.90;;
54599;SDS011;40500;51.084;16.958;2023-01-15T04:29:46;1.30;;;0.80;;
54599;SDS011;40500;51.084;16.958;2023-01-15T04:32:34;0.90;;;0.90;;
54599;SDS011;40500;51.084;16.958;2023-01-15T04:35:11;1.20;;;0.90;;
54599;SDS011;40500;51.084;16.958;2023-01-15T04:37:56;0.90;;;0.90;;
54599;SDS011;40500;51.084;16.958;2023-01-15T04:40:39;1.50;;;1.20;;
54599;SDS011;40500;51.084;16.958;2023-01-15T04:43:31;1.00;;;0.90;;
54599;SDS011;40500;51.084;16.958;2023-01-15T04:46:20;1.30;;;1.00;;
54599;SDS011;40500;51.084;16.958;2023-01-15T04:49:16;1.20;;;1.00;;
54599;SDS011;40500;51.084;16.958;2023-01-15T04:52:08;1.00;;;0.90;;
54599;SDS011;40500;51.084;16.958;2023-01-15T04:54:56;1.80;;;1.20;;
54599;SDS011;40500;51.084;16.958;2023-01-15T04:57:52;1.90;;;0.90;;
54599;SDS011;40500;51.084;16.958;2023-01-15T05:00:41;0.90;;;0.90;;
54599;SDS011;40500;51.084;16.958;2023-01-15T05:03:36;0.70;;;0.70;;
54599;SDS011;40500;51.084;16.958;2023-01-15T05:06:30;1.10;;;0.90;;
54599;SDS011;40500;51.084;16.958;2023-01-15T05:09:24;1.10;;;0.80;;
54599;SDS011;40500;51.084;16.958;2023-01-15T05:14:49;1.60;;;0.90;;
54599;SDS011;40500;51.084;16.958;2023-01-15T05:17:40;1.90;;;1.00;;
54599;SDS011;40500;51.084;16.958;2023-01-15T05:20:35;1.00;;;0.90;;
54599;SDS011;40500;51.084;16.958;2023-01-15T05:23:33;1.10;;;1.00;;
54599;SDS011;40500;51.084;16.958;2023-01-15T05:26:30;1.20;;;1.10;;
54599;SDS011;40500;51.084;16.958;2023-01-15T05:29:15;1.30;;;1.20;;
54599;SDS011;40500;51.084;16.958;2023-01-15T05:32:18;1.90;;;1.20;;
54599;SDS011;40500;51.084;16.958;2023-01-15T05:35:48;1.50;;;1.30;;
54599;SDS011;40500;51.084;16.958;2023-01-15T05:40:01;1.70;;;1.30;;
54599;SDS011;40500;51.084;16.958;2023-01-15T05:43:04;1.60;;;1.10;;
54599;SDS011;40500;51.084;16.958;2023-01-15T05:46:03;1.50;;;1.40;;
54599;SDS011;40500;51.084;16.958;2023-01-15T05:48:44;1.30;;;1.20;;
54599;SDS011;40500;51.084;16.958;2023-01-15T05:51:29;1.10;;;1.00;;
54599;SDS011;40500;51.084;16.958;2023-01-15T05:54:32;1.80;;;1.40;;
54599;SDS011;40500;51.084;16.958;2023-01-15T05:57:31;1.80;;;1.30;;
54599;SDS011;40500;51.084;16.958;2023-01-15T06:00:07;1.90;;;1.10;;
54599;SDS011;40500;51.084;16.958;2023-01-15T06:03:08;1.70;;;1.20;;
54599;SDS011;40500;51.084;16.958;2023-01-15T06:05:52;1.70;;;1.10;;
54599;SDS011;40500;51.084;16.958;2023-01-15T06:08:31;1.20;;;1.10;;
54599;SDS011;40500;51.084;16.958;2023-01-15T06:11:07;2.00;;;1.00;;
54599;SDS011;40500;51.084;16.958;2023-01-15T06:13:49;1.60;;;1.10;;
54599;SDS011;40500;51.084;16.958;2023-01-15T06:16:36;1.30;;;1.00;;
54599;SDS011;40500;51.084;16.958;2023-01-15T06:19:23;2.20;;;1.20;;
54599;SDS011;40500;51.084;16.958;2023-01-15T06:22:02;0.90;;;0.90;;
54599;SDS011;40500;51.084;16.958;2023-01-15T06:24:39;1.00;;;1.00;;
54599;SDS011;40500;51.084;16.958;2023-01-15T06:27:14;1.30;;;1.10;;
54599;SDS011;40500;51.084;16.958;2023-01-15T06:29:54;2.80;;;1.50;;
54599;SDS011;40500;51.084;16.958;2023-01-15T06:32:53;1.60;;;1.20;;
54599;SDS011;40500;51.084;16.958;2023-01-15T06:35:49;2.20;;;1.30;;
54599;SDS011;40500;51.084;16.958;2023-01-15T06:38:50;1.00;;;0.90;;
54599;SDS011;40500;51.084;16.958;2023-01-15T06:41:54;3.20;;;0.90;;
54599;SDS011;40500;51.084;16.958;2023-01-15T06:48:35;1.00;;;1.00;;
54599;SDS011;40500;51.084;16.958;2023-01-15T06:51:29;1.10;;;0.90;;
54599;SDS011;40500;51.084;16.958;2023-01-15T06:54:35;1.20;;;1.00;;
54599;SDS011;40500;51.084;16.958;2023-01-15T06:57:25;1.70;;;0.90;;
54599;SDS011;40500;51.084;16.958;2023-01-15T07:00:09;1.00;;;0.90;;
54599;SDS011;40500;51.084;16.958;2023-01-15T07:02:49;1.00;;;0.90;;
54599;SDS011;40500;51.084;16.958;2023-01-15T07:05:31;0.90;;;0.80;;
54599;SDS011;40500;51.084;16.958;2023-01-15T07:08:28;1.10;;;1.00;;
54599;SDS011;40500;51.084;16.958;2023-01-15T07:11:09;1.20;;;0.90;;
54599;SDS011;40500;51.084;16.958;2023-01-15T07:13:51;1.70;;;1.00;;
54599;SDS011;40500;51.084;16.958;2023-01-15T07:16:51;1.30;;;1.00;;
54599;SDS011;40500;51.084;16.958;2023-01-15T07:19:27;0.90;;;0.90;;
54599;SDS011;40500;51.084;16.958;2023-01-15T07:22:03;2.30;;;1.10;;
54599;SDS011;40500;51.084;16.958;2023-01-15T07:25:03;1.60;;;1.20;;
54599;SDS011;40500;51.084;16.958;2023-01-15T07:27:44;1.50;;;1.10;;
54599;SDS011;40500;51.084;16.958;2023-01-15T07:30:30;1.30;;;1.20;;
54599;SDS011;40500;51.084;16.958;2023-01-15T07:33:16;1.40;;;1.30;;
54599;SDS011;40500;51.084;16.958;2023-01-15T07:36:03;1.30;;;1.00;;
54599;SDS011;40500;51.084;16.958;2023-01-15T07:38:48;2.00;;;1.40;;
54599;SDS011;40500;51.084;16.958;2023-01-15T07:41:35;3.00;;;1.60;;
54599;SDS011;40500;51.084;16.958;2023-01-15T07:44:56;1.60;;;1.30;;
54599;SDS011;40500;51.084;16.958;2023-01-15T07:48:23;2.10;;;1.60;;
54599;SDS011;40500;51.084;16.958;2023-01-15T07:51:57;1.50;;;1.40;;
54599;SDS011;40500;51.084;16.958;2023-01-15T07:54:50;1.40;;;1.10;;
54599;SDS011;40500;51.084;16.958;2023-01-15T07:57:26;1.40;;;1.10;;
54599;SDS011;40500;51.084;16.958;2023-01-15T08:03:26;1.80;;;1.20;;
54599;SDS011;40500;51.084;16.958;2023-01-15T08:06:01;1.50;;;1.20;;
54599;SDS011;40500;51.084;16.958;2023-01-15T08:08:36;2.40;;;1.20;;
54599;SDS011;40500;51.084;16.958;2023-01-15T08:11:29;1.40;;;1.20;;
54599;SDS011;40500;51.084;16.958;2023-01-15T08:14:43;1.50;;;1.40;;
54599;SDS011;40500;51.084;16.958;2023-01-15T08:21:57;1.60;;;1.50;;
54599;SDS011;40500;51.084;16.958;2023-01-15T08:25:41;2.70;;;1.80;;
54599;SDS011;40500;51.084;16.958;2023-01-15T08:39:44;1.80;;;1.60;;
54599;SDS011;40500;51.084;16.958;2023-01-15T08:48:01;2.20;;;1.70;;
54599;SDS011;40500;51.084;16.958;2023-01-15T08:56:43;3.40;;;1.90;;
54599;SDS011;40500;51.084;16.958;2023-01-15T09:05:08;2.60;;;1.70;;
54599;SDS011;40500;51.084;16.958;2023-01-15T09:08:55;1.70;;;1.50;;
54599;SDS011;40500;51.084;16.958;2023-01-15T09:15:40;2.90;;;2.10;;
54599;SDS011;40500;51.084;16.958;2023-01-15T09:18:51;3.00;;;1.70;;
54599;SDS011;40500;51.084;16.958;2023-01-15T09:21:40;1.80;;;1.50;;
54599;SDS011;40500;51.084;16.958;2023-01-15T09:28:45;2.10;;;1.80;;
54599;SDS011;40500;51.084;16.958;2023-01-15T09:36:23;2.40;;;1.80;;
54599;SDS011;40500;51.084;16.958;2023-01-15T09:40:33;2.30;;;1.80;;
54599;SDS011;40500;51.084;16.958;2023-01-15T09:44:34;2.40;;;1.70;;
54599;SDS011;40500;51.084;16.958;2023-01-15T09:51:57;2.40;;;1.60;;
54599;SDS011;40500;51.084;16.958;2023-01-15T09:58:32;2.60;;;1.70;;
54599;SDS011;40500;51.084;16.958;2023-01-15T10:02:14;1.90;;;1.70;;
54599;SDS011;40500;51.084;16.958;2023-01-15T10:10:26;2.30;;;1.50;;
54599;SDS011;40500;51.084;16.958;2023-01-15T10:16:21;2.10;;;1.50;;
54599;SDS011;40500;51.084;16.958;2023-01-15T10:19:44;2.00;;;1.70;;
54599;SDS011;40500;51.084;16.958;2023-01-15T10:27:01;2.70;;;1.80;;
54599;SDS011;40500;51.084;16.958;2023-01-15T10:30:40;3.20;;;2.00;;
54599;SDS011;40500;51.084;16.958;2023-01-15T10:33:51;3.00;;;1.60;;
54599;SDS011;40500;51.084;16.958;2023-01-15T10:36:39;2.00;;;1.60;;
54599;SDS011;40500;51.084;16.958;2023-01-15T10:39:47;3.00;;;1.90;;
54599;SDS011;40500;51.084;16.958;2023-01-15T10:42:52;3.00;;;1.90;;
54599;SDS011;40500;51.084;16.958;2023-01-15T10:46:15;1.90;;;1.50;;
54599;SDS011;40500;51.084;16.958;2023-01-15T10:49:03;2.30;;;1.80;;
54599;SDS011;40500;51.084;16.958;2023-01-15T10:52:04;2.80;;;2.10;;
54599;SDS011;40500;51.084;16.958;2023-01-15T10:54:52;6.10;;;2.10;;
54599;SDS011;40500;51.084;16.958;2023-01-15T10:57:40;1.90;;;1.50;;
54599;SDS011;40500;51.084;16.958;2023-01-15T11:00:45;2.00;;;1.70;;
54599;SDS011;40500;51.084;16.958;2023-01-15T11:03:55;1.80;;;1.60;;
54599;SDS011;40500;51.084;16.958;2023-01-15T11:06:34;2.10;;;1.50;;
54599;SDS011;40500;51.084;16.958;2023-01-15T11:09:30;2.40;;;1.80;;
54599;SDS011;40500;51.084;16.958;2023-01-15T11:15:46;2.40;;;1.60;;
54599;SDS011;40500;51.084;16.958;2023-01-15T11:18:38;1.80;;;1.50;;
54599;SDS011;40500;51.084;16.958;2023-01-15T11:21:57;2.80;;;1.30;;
54599;SDS011;40500;51.084;16.958;2023-01-15T11:24:29;2.60;;;1.80;;
54599;SDS011;40500;51.084;16.958;2023-01-15T11:27:29;2.30;;;2.00;;
54599;SDS011;40500;51.084;16.958;2023-01-15T11:30:28;2.70;;;1.60;;
54599;SDS011;40500;51.084;16.958;2023-01-15T11:33:27;2.20;;;1.80;;
54599;SDS011;40500;51.084;16.958;2023-01-15T11:36:21;2.70;;;2.00;;
54599;SDS011;40500;51.084;16.958;2023-01-15T11:39:24;2.50;;;1.90;;
54599;SDS011;40500;51.084;16.958;2023-01-15T11:42:01;2.70;;;2.00;;
54599;SDS011;40500;51.084;16.958;2023-01-15T11:44:51;1.80;;;1.60;;
54599;SDS011;40500;51.084;16.958;2023-01-15T11:47:50;2.20;;;1.80;;
54599;SDS011;40500;51.084;16.958;2023-01-15T11:50:39;2.90;;;2.10;;
54599;SDS011;40500;51.084;16.958;2023-01-15T11:53:20;3.20;;;1.70;;
54599;SDS011;40500;51.084;16.958;2023-01-15T11:55:54;2.70;;;1.90;;
54599;SDS011;40500;51.084;16.958;2023-01-15T11:58:31;3.60;;;2.50;;
54599;SDS011;40500;51.084;16.958;2023-01-15T12:01:07;2.90;;;2.10;;
54599;SDS011;40500;51.084;16.958;2023-01-15T12:03:39;2.00;;;1.70;;
54599;SDS011;40500;51.084;16.958;2023-01-15T12:06:11;2.40;;;2.10;;
54599;SDS011;40500;51.084;16.958;2023-01-15T12:08:46;2.60;;;1.80;;
54599;SDS011;40500;51.084;16.958;2023-01-15T12:11:26;3.90;;;2.30;;
54599;SDS011;40500;51.084;16.958;2023-01-15T12:14:17;4.70;;;2.30;;
54599;SDS011;40500;51.084;16.958;2023-01-15T12:17:10;2.50;;;1.70;;
54599;SDS011;40500;51.084;16.958;2023-01-15T12:19:55;3.50;;;1.80;;
54599;SDS011;40500;51.084;16.958;2023-01-15T12:22:42;2.40;;;2.00;;
54599;SDS011;40500;51.084;16.958;2023-01-15T12:25:32;4.00;;;2.40;;
54599;SDS011;40500;51.084;16.958;2023-01-15T12:28:14;3.20;;;2.40;;
54599;SDS011;40500;51.084;16.958;2023-01-15T12:30:54;2.40;;;1.30;;
54599;SDS011;40500;51.084;16.958;2023-01-15T12:33:34;1.70;;;1.30;;
54599;SDS011;40500;51.084;16.958;2023-01-15T12:36:11;1.90;;;1.00;;
54599;SDS011;40500;51.084;16.958;2023-01-15T12:38:50;1.40;;;0.90;;
54599;SDS011;40500;51.084;16.958;2023-01-15T12:41:26;1.50;;;1.00;;
54599;SDS011;40500;51.084;16.958;2023-01-15T12:44:17;1.10;;;0.70;;
54599;SDS011;40500;51.084;16.958;2023-01-15T12:47:13;0.50;;;0.50;;
54599;SDS011;40500;51.084;16.958;2023-01-15T12:49:50;0.60;;;0.60;;
54599;SDS011;40500;51.084;16.958;2023-01-15T12:52:27;1.00;;;0.80;;
54599;SDS011;40500;51.084;16.958;2023-01-15T12:55:05;1.00;;;0.60;;
54599;SDS011;40500;51.084;16.958;2023-01-15T12:57:42;0.60;;;0.60;;
54599;SDS011;40500;51.084;16.958;2023-01-15T13:00:17;2.10;;;1.00;;
54599;SDS011;40500;51.084;16.958;2023-01-15T13:02:59;1.50;;;0.90;;
54599;SDS011;40500;51.084;16.958;2023-01-15T13:05:39;1.90;;;1.10;;
54599;SDS011;40500;51.084;16.958;2023-01-15T13:08:16;1.80;;;0.80;;
54599;SDS011;40500;51.084;16.958;2023-01-15T13:10:55;1.80;;;1.10;;
54599;SDS011;40500;51.084;16.958;2023-01-15T13:13:28;1.20;;;0.90;;
54599;SDS011;40500;51.084;16.958;2023-01-15T13:16:03;2.90;;;1.10;;
54599;SDS011;40500;51.084;16.958;2023-01-15T13:18:48;1.10;;;0.90;;
54599;SDS011;40500;51.084;16.958;2023-01-15T13:21:30;1.10;;;0.80;;
54599;SDS011;40500;51.084;16.958;2023-01-15T13:24:07;2.30;;;1.20;;
54599;SDS011;40500;51.084;16.958;2023-01-15T13:29:32;1.30;;;0.80;;
54599;SDS011;40500;51.084;16.958;2023-01-15T13:32:13;1.80;;;0.80;;
54599;SDS011;40500;51.084;16.958;2023-01-15T13:34:49;0.90;;;0.80;;
54599;SDS011;40500;51.084;16.958;2023-01-15T13:37:23;0.70;;;0.70;;
54599;SDS011;40500;51.084;16.958;2023-01-15T13:39:59;1.30;;;1.10;;
54599;SDS011;40500;51.084;16.958;2023-01-15T13:42:32;1.40;;;1.00;;
54599;SDS011;40500;51.084;16.958;2023-01-15T13:45:07;1.50;;;0.90;;
54599;SDS011;40500;51.084;16.958;2023-01-15T13:47:55;0.70;;;0.70;;
54599;SDS011;40500;51.084;16.958;2023-01-15T13:50:32;2.50;;;1.00;;
54599;SDS011;40500;51.084;16.958;2023-01-15T13:53:05;1.10;;;0.70;;
54599;SDS011;40500;51.084;16.958;2023-01-15T13:55:47;0.80;;;0.80;;
54599;SDS011;40500;51.084;16.958;2023-01-15T13:58:21;1.20;;;0.90;;
54599;SDS011;40500;51.084;16.958;2023-01-15T14:01:01;1.20;;;1.10;;
54599;SDS011;40500;51.084;16.958;2023-01-15T14:03:36;1.00;;;0.90;;
54599;SDS011;40500;51.084;16.958;2023-01-15T14:06:07;0.80;;;0.80;;
54599;SDS011;40500;51.084;16.958;2023-01-15T14:08:39;1.10;;;1.00;;
54599;SDS011;40500;51.084;16.958;2023-01-15T14:17:00;1.80;;;0.90;;
54599;SDS011;40500;51.084;16.958;2023-01-15T14:19:43;1.30;;;1.20;;
54599;SDS011;40500;51.084;16.958;2023-01-15T14:22:31;4.30;;;1.20;;
54599;SDS011;40500;51.084;16.958;2023-01-15T14:25:22;1.10;;;1.00;;
54599;SDS011;40500;51.084;16.958;2023-01-15T14:28:04;2.00;;;1.10;;
54599;SDS011;40500;51.084;16.958;2023-01-15T14:31:00;1.00;;;0.90;;
54599;SDS011;40500;51.084;16.958;2023-01-15T14:33:56;2.10;;;1.20;;
54599;SDS011;40500;51.084;16.958;2023-01-15T14:36:51;1.90;;;1.00;;
54599;SDS011;40500;51.084;16.958;2023-01-15T14:39:29;1.20;;;0.80;;
54599;SDS011;40500;51.084;16.958;2023-01-15T14:42:05;1.10;;;1.00;;
54599;SDS011;40500;51.084;16.958;2023-01-15T14:44:59;1.30;;;1.20;;
54599;SDS011;40500;51.084;16.958;2023-01-15T14:47:35;1.40;;;1.30;;
54599;SDS011;40500;51.084;16.958;2023-01-15T14:50:22;2.80;;;1.40;;
54599;SDS011;40500;51.084;16.958;2023-01-15T14:52:59;1.60;;;1.50;;
54599;SDS011;40500;51.084;16.958;2023-01-15T14:55:36;1.50;;;1.40;;
54599;SDS011;40500;51.084;16.958;2023-01-15T15:00:44;3.10;;;1.50;;
54599;SDS011;40500;51.084;16.958;2023-01-15T15:03:25;1.30;;;1.20;;
54599;SDS011;40500;51.084;16.958;2023-01-15T15:06:06;1.50;;;1.20;;
54599;SDS011;40500;51.084;16.958;2023-01-15T15:08:41;2.50;;;1.50;;
54599;SDS011;40500;51.084;16.958;2023-01-15T15:11:16;1.70;;;1.40;;
54599;SDS011;40500;51.084;16.958;2023-01-15T15:14:09;5.20;;;3.20;;
54599;SDS011;40500;51.084;16.958;2023-01-15T15:16:44;4.40;;;2.50;;
54599;SDS011;40500;51.084;16.958;2023-01-15T15:19:24;3.20;;;2.30;;
54599;SDS011;40500;51.084;16.958;2023-01-15T15:21:59;4.40;;;2.40;;
54599;SDS011;40500;51.084;16.958;2023-01-15T15:24:36;3.30;;;2.30;;
54599;SDS011;40500;51.084;16.958;2023-01-15T15:27:16;2.80;;;2.20;;
54599;SDS011;40500;51.084;16.958;2023-01-15T15:29:48;3.10;;;2.10;;
54599;SDS011;40500;51.084;16.958;2023-01-15T15:32:22;3.30;;;2.50;;
54599;SDS011;40500;51.084;16.958;2023-01-15T15:34:54;3.50;;;2.80;;
54599;SDS011;40500;51.084;16.958;2023-01-15T15:37:28;5.50;;;2.70;;
54599;SDS011;40500;51.084;16.958;2023-01-15T15:40:00;4.50;;;2.40;;
54599;SDS011;40500;51.084;16.958;2023-01-15T15:42:37;2.30;;;2.10;;
54599;SDS011;40500;51.084;16.958;2023-01-15T15:45:31;4.30;;;2.00;;
54599;SDS011;40500;51.084;16.958;2023-01-15T15:48:20;3.40;;;2.10;;
54599;SDS011;40500;51.084;16.958;2023-01-15T15:51:22;4.00;;;2.20;;
54599;SDS011;40500;51.084;16.958;2023-01-15T15:54:03;4.00;;;2.70;;
54599;SDS011;40500;51.084;16.958;2023-01-15T15:56:40;2.70;;;2.20;;
54599;SDS011;40500;51.084;16.958;2023-01-15T16:01:58;4.00;;;3.20;;
54599;SDS011;40500;51.084;16.958;2023-01-15T16:04:38;4.10;;;3.20;;
54599;SDS011;40500;51.084;16.958;2023-01-15T16:07:14;5.30;;;3.60;;
54599;SDS011;40500;51.084;16.958;2023-01-15T16:09:53;4.60;;;3.40;;
54599;SDS011;40500;51.084;16.958;2023-01-15T16:12:29;5.00;;;3.50;;
54599;SDS011;40500;51.084;16.958;2023-01-15T16:15:05;4.60;;;2.80;;
54599;SDS011;40500;51.084;16.958;2023-01-15T16:17:46;3.70;;;3.30;;
54599;SDS011;40500;51.084;16.958;2023-01-15T16:20:20;4.20;;;2.90;;
54599;SDS011;40500;51.084;16.958;2023-01-15T16:22:53;8.30;;;3.30;;
54599;SDS011;40500;51.084;16.958;2023-01-15T16:25:26;9.60;;;4.40;;
54599;SDS011;40500;51.084;16.958;2023-01-15T16:28:00;7.30;;;4.80;;
54599;SDS011;40500;51.084;16.958;2023-01-15T16:30:32;8.20;;;4.50;;
54599;SDS011;40500;51.084;16.958;2023-01-15T16:33:03;7.10;;;4.50;;
54599;SDS011;40500;51.084;16.958;2023-01-15T16:35:35;7.60;;;5.10;;
54599;SDS011;40500;51.084;16.958;2023-01-15T16:38:13;14.00;;;5.80;;
54599;SDS011;40500;51.084;16.958;2023-01-15T16:40:52;8.00;;;4.70;;
54599;SDS011;40500;51.084;16.958;2023-01-15T16:43:27;7.00;;;4.60;;
54599;SDS011;40500;51.084;16.958;2023-01-15T16:46:02;7.20;;;5.00;;
54599;SDS011;40500;51.084;16.958;2023-01-15T16:48:37;7.50;;;5.00;;
54599;SDS011;40500;51.084;16.958;2023-01-15T16:51:23;8.60;;;5.40;;
54599;SDS011;40500;51.084;16.958;2023-01-15T16:54:04;6.20;;;4.20;;
54599;SDS011;40500;51.084;16.958;2023-01-15T16:56:57;7.10;;;5.10;;
54599;SDS011;40500;51.084;16.958;2023-01-15T17:02:25;9.10;;;5.10;;
54599;SDS011;40500;51.084;16.958;2023-01-15T17:05:01;8.40;;;5.50;;
54599;SDS011;40500;51.084;16.958;2023-01-15T17:07:50;8.30;;;4.90;;
54599;SDS011;40500;51.084;16.958;2023-01-15T17:10:25;9.40;;;5.60;;
54599;SDS011;40500;51.084;16.958;2023-01-15T17:12:58;13.90;;;7.20;;
54599;SDS011;40500;51.084;16.958;2023-01-15T17:15:38;12.20;;;6.20;;
54599;SDS011;40500;51.084;16.958;2023-01-15T17:18:25;9.00;;;5.60;;
54599;SDS011;40500;51.084;16.958;2023-01-15T17:20:57;8.60;;;5.30;;
54599;SDS011;40500;51.084;16.958;2023-01-15T17:23:32;9.40;;;6.30;;
54599;SDS011;40500;51.084;16.958;2023-01-15T17:26:11;10.80;;;5.60;;
54599;SDS011;40500;51.084;16.958;2023-01-15T17:28:50;8.20;;;5.20;;
54599;SDS011;40500;51.084;16.958;2023-01-15T17:31:35;8.40;;;5.10;;
54599;SDS011;40500;51.084;16.958;2023-01-15T17:34:10;8.80;;;6.00;;
54599;SDS011;40500;51.084;16.958;2023-01-15T17:36:45;9.20;;;4.90;;
54599;SDS011;40500;51.084;16.958;2023-01-15T17:39:18;9.80;;;5.50;;
54599;SDS011;40500;51.084;16.958;2023-01-15T17:41:52;6.90;;;4.90;;
54599;SDS011;40500;51.084;16.958;2023-01-15T17:44:23;7.70;;;5.30;;
54599;SDS011;40500;51.084;16.958;2023-01-15T17:47:17;11.10;;;6.10;;
54599;SDS011;40500;51.084;16.958;2023-01-15T17:50:13;8.30;;;5.90;;
54599;SDS011;40500;51.084;16.958;2023-01-15T17:53:09;9.90;;;5.90;;
54599;SDS011;40500;51.084;16.958;2023-01-15T17:56:00;9.80;;;5.70;;
54599;SDS011;40500;51.084;16.958;2023-01-15T17:58:48;9.20;;;5.30;;
54599;SDS011;40500;51.084;16.958;2023-01-15T18:01:37;10.30;;;6.00;;
54599;SDS011;40500;51.084;16.958;2023-01-15T18:04:30;11.50;;;5.20;;
54599;SDS011;40500;51.084;16.958;2023-01-15T18:07:23;10.40;;;5.50;;
54599;SDS011;40500;51.084;16.958;2023-01-15T18:10:01;15.40;;;6.60;;
54599;SDS011;40500;51.084;16.958;2023-01-15T18:12:47;7.60;;;4.70;;
54599;SDS011;40500;51.084;16.958;2023-01-15T18:15:39;9.60;;;5.50;;
54599;SDS011;40500;51.084;16.958;2023-01-15T18:18:34;8.50;;;4.80;;
54599;SDS011;40500;51.084;16.958;2023-01-15T18:21:28;9.30;;;5.30;;
54599;SDS011;40500;51.084;16.958;2023-01-15T18:24:19;7.20;;;5.10;;
54599;SDS011;40500;51.084;16.958;2023-01-15T18:27:10;7.50;;;5.40;;
54599;SDS011;40500;51.084;16.958;2023-01-15T18:29:44;7.30;;;4.80;;
54599;SDS011;40500;51.084;16.958;2023-01-15T18:32:17;9.10;;;5.20;;
54599;SDS011;40500;51.084;16.958;2023-01-15T18:35:10;7.20;;;4.60;;